Terminal Aerodrome Forecast
Issued by NWS Tampa Bay Area, FL

Home | Current Version | Previous Version | Text Only | Print | Product List | Glossary On
Versions: 1 2 3 4 5 6 7 8 9 10 11 12 13 14 15 16 17 18 19 20 21 22
905
FTUS42 KTBW 062344
TAFSRQ
TAF
KSRQ 062344Z 0700/0724 33011KT 6SM BR VCSH BKN010 BKN020
      TEMPO 0700/0702 5SM -SHRA BR BKN008
     FM070200 34012KT P6SM VCSH BKN008 BKN012 OVC020
     FM070900 33015G24KT P6SM SCT010 BKN015 BKN100
     FM071200 33017G26KT P6SM BKN025
     FM071500 32017G25KT P6SM FEW030=

USA.gov is the U.S. government's official web portal to all federal, state and local government web resources and services.